createdAt,value
2018-04-29T00:01:29.643Z,99.90
2018-04-29T00:04:07.905Z,99.90
2018-04-29T00:06:47.131Z,1.00
2018-04-29T00:09:27.468Z,1.00
2018-04-29T00:12:04.548Z,1.00
2018-04-29T00:14:47.012Z,1.00
2018-04-29T00:17:24.991Z,1.00
2018-04-29T00:20:03.589Z,1.00
2018-04-29T00:22:40.130Z,1.00
2018-04-29T00:25:17.504Z,1.00
2018-04-29T00:27:54.075Z,1.00
2018-04-29T00:30:30.535Z,1.00
2018-04-29T00:33:11.062Z,1.00
2018-04-29T00:35:50.455Z,1.00
2018-04-29T00:38:32.436Z,1.00
2018-04-29T00:41:10.485Z,1.00
2018-04-29T00:43:49.832Z,1.00
2018-04-29T00:46:28.224Z,1.00
2018-04-29T00:49:05.859Z,1.00
2018-04-29T00:51:49.631Z,1.00
2018-04-29T00:54:27.195Z,1.00
2018-04-29T00:57:04.004Z,1.00
2018-04-29T00:59:44.780Z,1.00
2018-04-29T01:02:22.259Z,1.00
2018-04-29T01:04:59.169Z,1.00
2018-04-29T01:07:41.710Z,1.00
2018-04-29T01:10:21.557Z,1.00
2018-04-29T01:12:59.231Z,4.70
2018-04-29T01:15:37.631Z,3.80
2018-04-29T01:18:16.650Z,62.20
2018-04-29T01:20:56.858Z,82.50
2018-04-29T01:23:34.865Z,86.10
2018-04-29T01:26:13.513Z,99.90
2018-04-29T01:28:52.337Z,99.90
2018-04-29T01:31:29.417Z,99.90
2018-04-29T01:34:08.368Z,99.90
2018-04-29T01:36:47.717Z,99.90
2018-04-29T01:39:24.372Z,99.90
2018-04-29T01:42:02.256Z,99.90
2018-04-29T01:44:38.900Z,99.90
2018-04-29T01:47:16.764Z,99.90
2018-04-29T01:49:53.611Z,99.90
2018-04-29T01:52:31.292Z,99.90
2018-04-29T01:55:10.872Z,99.90
2018-04-29T01:57:46.986Z,99.90
2018-04-29T02:00:24.008Z,99.90
2018-04-29T02:03:00.985Z,99.90
2018-04-29T02:05:38.281Z,99.90
2018-04-29T02:08:15.095Z,99.90
2018-04-29T02:10:57.994Z,99.90
2018-04-29T02:13:35.800Z,99.90
2018-04-29T02:16:15.010Z,99.90
2018-04-29T02:18:52.839Z,99.90
2018-04-29T02:21:31.253Z,99.90
2018-04-29T02:24:09.101Z,99.90
2018-04-29T02:26:47.790Z,99.90
2018-04-29T02:29:27.287Z,99.90
2018-04-29T02:32:06.317Z,99.90
2018-04-29T02:34:45.197Z,99.90
2018-04-29T02:37:22.649Z,99.90
2018-04-29T02:39:58.661Z,99.90
2018-04-29T02:42:34.164Z,99.90
2018-04-29T02:45:14.815Z,99.90
2018-04-29T02:47:52.983Z,99.90
2018-04-29T02:50:29.735Z,99.90
2018-04-29T02:53:07.751Z,99.90
2018-04-29T02:55:45.381Z,99.90
2018-04-29T02:58:22.223Z,1.00
2018-04-29T03:00:58.240Z,1.00
2018-04-29T03:03:33.995Z,1.00
2018-04-29T03:06:11.221Z,1.00
2018-04-29T03:08:49.375Z,99.90
2018-04-29T03:11:28.818Z,1.00
2018-04-29T03:14:05.611Z,1.00
2018-04-29T03:16:45.684Z,1.00
2018-04-29T03:19:22.218Z,1.00
2018-04-29T03:21:58.759Z,1.00
2018-04-29T03:24:37.340Z,1.00
2018-04-29T03:27:13.883Z,1.00
2018-04-29T03:29:57.973Z,1.00
2018-04-29T03:32:34.500Z,1.00
2018-04-29T03:35:12.023Z,1.00
2018-04-29T03:37:49.068Z,1.00
2018-04-29T03:40:29.086Z,1.00
2018-04-29T03:43:06.439Z,1.00
2018-04-29T03:45:44.972Z,1.00
2018-04-29T03:48:27.940Z,1.00
2018-04-29T03:50:57.938Z,1.00
2018-04-29T03:53:33.761Z,1.00
2018-04-29T03:56:08.562Z,1.00
2018-04-29T03:58:55.985Z,1.00
2018-04-29T04:01:51.281Z,1.00
2018-04-29T04:04:21.101Z,1.00
2018-04-29T04:06:57.932Z,1.00
2018-04-29T04:09:36.505Z,1.00
2018-04-29T04:12:16.177Z,1.00
2018-04-29T04:14:53.384Z,1.00
2018-04-29T04:17:31.943Z,1.00
2018-04-29T04:20:11.256Z,1.00
2018-04-29T04:22:49.388Z,1.00
2018-04-29T04:25:27.520Z,1.00
2018-04-29T04:28:04.035Z,1.00
2018-04-29T04:30:40.745Z,1.00
2018-04-29T04:33:16.127Z,1.00
2018-04-29T04:35:53.055Z,1.00
2018-04-29T04:38:30.004Z,1.00
2018-04-29T04:41:08.438Z,1.00
2018-04-29T04:43:45.285Z,1.00
2018-04-29T04:46:25.799Z,1.00
2018-04-29T04:49:05.269Z,1.00
2018-04-29T04:51:43.275Z,1.00
2018-04-29T04:54:20.686Z,1.00
2018-04-29T04:57:00.327Z,99.90
2018-04-29T04:59:38.800Z,99.90
2018-04-29T05:02:16.422Z,99.90
2018-04-29T05:04:53.192Z,99.90
2018-04-29T05:07:35.232Z,99.90
2018-04-29T05:10:13.322Z,99.90
2018-04-29T05:12:50.608Z,99.90
2018-04-29T05:15:26.687Z,99.90
2018-04-29T05:18:02.216Z,99.90
2018-04-29T05:20:40.155Z,99.90
2018-04-29T05:23:19.032Z,99.90
2018-04-29T05:25:56.513Z,99.90
2018-04-29T05:28:26.385Z,99.90
2018-04-29T05:30:56.633Z,99.90
2018-04-29T05:33:26.614Z,99.90
2018-04-29T05:35:56.187Z,99.90
2018-04-29T05:38:33.104Z,99.90
2018-04-29T05:41:08.838Z,99.90
2018-04-29T05:43:44.088Z,99.90
2018-04-29T05:46:23.346Z,99.90
2018-04-29T05:49:00.388Z,99.90
2018-04-29T06:32:10.091Z,1.00
2018-04-29T06:34:47.669Z,1.00
2018-04-29T06:37:26.509Z,1.00
2018-04-29T06:40:06.399Z,1.00
2018-04-29T06:42:45.582Z,1.00
2018-04-29T06:45:22.780Z,1.00
2018-04-29T06:48:00.250Z,1.00
2018-04-29T06:50:38.574Z,1.00
2018-04-29T06:53:09.153Z,1.00
2018-04-29T06:55:41.006Z,1.00
2018-04-29T06:58:11.798Z,1.00
2018-04-29T07:00:42.210Z,1.00
2018-04-29T07:03:12.663Z,1.00
2018-04-29T07:05:41.898Z,1.00
2018-04-29T07:08:19.313Z,1.00
2018-04-29T07:10:58.958Z,1.00
2018-04-29T07:13:37.976Z,1.00
2018-04-29T07:16:14.731Z,1.00
2018-04-29T07:18:44.610Z,1.00
2018-04-29T07:21:14.751Z,1.00
2018-04-29T07:23:49.195Z,1.00
2018-04-29T07:26:18.724Z,1.00
2018-04-29T07:28:55.139Z,1.00
2018-04-29T07:31:39.273Z,1.00
2018-04-29T07:34:11.863Z,1.00
2018-04-29T07:36:43.544Z,1.00
2018-04-29T07:39:13.570Z,1.00
2018-04-29T07:41:44.662Z,1.00
2018-04-29T07:44:17.442Z,1.00
2018-04-29T07:46:47.457Z,1.00
2018-04-29T07:49:17.213Z,1.00
2018-04-29T07:51:47.947Z,1.00
2018-04-29T07:54:20.113Z,1.00
2018-04-29T07:56:52.663Z,1.00
2018-04-29T07:59:22.585Z,1.00
2018-04-29T08:01:52.924Z,1.00
2018-04-29T08:04:25.536Z,1.00
2018-04-29T08:06:54.738Z,1.00
2018-04-29T08:09:23.607Z,1.00
2018-04-29T08:11:52.961Z,1.00
2018-04-29T08:14:30.416Z,1.00
2018-04-29T08:17:06.296Z,1.00
2018-04-29T08:19:46.087Z,1.00
2018-04-29T08:22:23.413Z,1.00
2018-04-29T08:25:02.636Z,1.00
2018-04-29T08:27:39.906Z,1.00
2018-04-29T08:30:20.605Z,1.00
2018-04-29T08:32:58.011Z,1.00
2018-04-29T08:35:31.812Z,1.00
2018-04-29T08:38:01.634Z,1.00
2018-04-29T08:40:32.465Z,1.00
2018-04-29T08:43:02.371Z,1.00
2018-04-29T08:45:32.022Z,1.00
2018-04-29T08:48:02.573Z,1.00
2018-04-29T08:50:32.478Z,1.00
2018-04-29T08:53:03.780Z,1.00
2018-04-29T08:55:33.346Z,1.00
2018-04-29T08:58:04.460Z,1.00
2018-04-29T09:00:35.146Z,1.00
2018-04-29T09:03:07.114Z,1.00
2018-04-29T09:05:37.043Z,1.00
2018-04-29T09:08:08.181Z,1.00
2018-04-29T09:10:40.091Z,1.00
2018-04-29T09:13:10.270Z,1.00
2018-04-29T09:15:40.906Z,99.90
2018-04-29T09:18:11.839Z,99.90
2018-04-29T09:20:41.790Z,99.90
2018-04-29T09:23:12.077Z,99.90
2018-04-29T09:25:41.709Z,76.90
2018-04-29T09:28:12.653Z,99.90
2018-04-29T09:30:43.150Z,1.00
2018-04-29T09:33:15.403Z,1.00
2018-04-29T09:35:47.406Z,1.00
2018-04-29T09:38:20.471Z,1.00
2018-04-29T09:40:53.743Z,1.00
2018-04-29T09:43:24.567Z,1.00
2018-04-29T09:45:55.207Z,99.90
2018-04-29T09:48:26.113Z,99.90
2018-04-29T09:50:58.382Z,99.90
2018-04-29T09:53:28.292Z,1.00
2018-04-29T09:56:07.338Z,1.00
2018-04-29T09:58:45.093Z,97.30
2018-04-29T10:01:25.510Z,99.90
2018-04-29T10:04:08.908Z,99.90
2018-04-29T10:06:47.234Z,99.90
2018-04-29T10:09:16.200Z,99.90
2018-04-29T10:11:47.122Z,99.90
2018-04-29T10:14:18.195Z,99.90
2018-04-29T10:16:47.342Z,99.90
2018-04-29T10:19:17.249Z,99.90
2018-04-29T10:21:47.811Z,99.90
2018-04-29T10:24:18.622Z,92.60
2018-04-29T10:26:49.079Z,93.40
2018-04-29T10:29:19.994Z,99.90
2018-04-29T10:31:49.978Z,99.90
2018-04-29T10:34:20.095Z,1.00
2018-04-29T10:36:52.271Z,1.00
2018-04-29T10:39:22.616Z,1.00
2018-04-29T10:41:52.814Z,1.00
2018-04-29T10:44:22.675Z,99.90
2018-04-29T10:46:53.490Z,99.90
2018-04-29T10:49:23.697Z,99.90
2018-04-29T10:51:53.939Z,1.00
2018-04-29T10:54:24.202Z,99.90
2018-04-29T10:56:54.127Z,1.00
2018-04-29T10:59:23.885Z,99.90
2018-04-29T11:01:53.877Z,1.00
2018-04-29T11:04:24.110Z,1.00
2018-04-29T11:06:54.215Z,99.90
2018-04-29T11:09:24.535Z,1.00
2018-04-29T11:11:55.308Z,1.00
2018-04-29T11:14:25.750Z,1.00
2018-04-29T11:16:56.675Z,1.00
2018-04-29T11:19:27.590Z,1.00
2018-04-29T11:21:59.723Z,1.00
2018-04-29T11:24:32.044Z,1.00
2018-04-29T11:27:03.729Z,1.00
2018-04-29T11:29:33.501Z,35.90
2018-04-29T11:32:03.956Z,7.00
2018-04-29T11:34:34.801Z,1.00
2018-04-29T11:37:12.640Z,1.00
2018-04-29T11:39:43.947Z,1.00
2018-04-29T11:42:14.497Z,1.00
2018-04-29T11:44:45.251Z,1.00
2018-04-29T11:47:16.273Z,1.00
2018-04-29T11:49:47.605Z,1.00
2018-04-29T11:52:24.653Z,1.00
2018-04-29T11:54:56.486Z,99.90
2018-04-29T11:57:28.061Z,99.90
2018-04-29T11:59:59.685Z,77.70
2018-04-29T12:02:30.469Z,83.10
2018-04-29T12:05:00.941Z,44.30
2018-04-29T12:07:32.325Z,37.80
2018-04-29T12:10:04.428Z,1.00
2018-04-29T12:12:35.872Z,1.00
2018-04-29T12:15:07.068Z,1.00
2018-04-29T12:17:38.090Z,99.90
2018-04-29T12:20:08.571Z,1.00
2018-04-29T12:22:39.757Z,99.90
2018-04-29T12:25:10.986Z,99.90
2018-04-29T12:27:42.151Z,99.90
2018-04-29T12:30:13.243Z,1.00
2018-04-29T12:32:43.801Z,99.90
2018-04-29T12:35:14.854Z,1.00
2018-04-29T12:37:46.262Z,99.90
2018-04-29T12:40:17.953Z,99.90
2018-04-29T12:42:49.067Z,99.90
2018-04-29T12:45:19.585Z,70.10
2018-04-29T12:47:50.974Z,1.00
2018-04-29T12:50:22.914Z,99.90
2018-04-29T12:52:54.286Z,1.00
2018-04-29T12:55:24.747Z,1.00
2018-04-29T12:57:57.425Z,1.00
2018-04-29T13:00:27.801Z,1.00
2018-04-29T13:05:40.455Z,1.00
2018-04-29T13:08:11.552Z,1.00
2018-04-29T13:10:43.382Z,1.00
2018-04-29T13:13:15.541Z,1.00
2018-04-29T13:15:51.897Z,1.00
2018-04-29T13:18:22.155Z,1.00
2018-04-29T13:20:58.233Z,99.90
2018-04-29T13:23:28.783Z,99.90
2018-04-29T13:26:00.549Z,1.00
2018-04-29T13:28:31.647Z,99.90
2018-04-29T13:31:03.171Z,99.90
2018-04-29T13:33:34.339Z,35.70
2018-04-29T13:36:07.209Z,99.90
2018-04-29T13:38:37.925Z,99.90
2018-04-29T13:41:08.660Z,1.00
2018-04-29T13:43:48.609Z,1.00
2018-04-29T13:46:20.837Z,1.00
2018-04-29T13:48:52.586Z,1.00
2018-04-29T13:51:24.133Z,99.90
2018-04-29T13:53:56.033Z,1.00
2018-04-29T13:56:29.047Z,99.90
2018-04-29T13:59:01.445Z,1.00
2018-04-29T14:01:32.428Z,1.00
2018-04-29T14:04:03.390Z,99.90
2018-04-29T14:06:34.812Z,1.00
2018-04-29T14:09:05.297Z,99.90
2018-04-29T14:11:37.184Z,99.90
2018-04-29T14:14:08.529Z,99.90
2018-04-29T14:16:40.131Z,1.00
2018-04-29T14:19:11.892Z,99.90
2018-04-29T14:21:43.005Z,99.90
2018-04-29T14:24:20.141Z,99.90
2018-04-29T14:26:51.513Z,1.00
2018-04-29T14:29:22.129Z,1.00
2018-04-29T14:32:02.495Z,99.90
2018-04-29T14:34:33.619Z,99.90
2018-04-29T14:37:04.413Z,99.90
2018-04-29T14:39:41.334Z,99.90
2018-04-29T14:42:12.278Z,99.90
2018-04-29T14:44:42.738Z,99.90
2018-04-29T14:47:12.444Z,99.90
2018-04-29T14:49:43.337Z,99.90
2018-04-29T14:52:13.152Z,99.90
2018-04-29T14:54:56.875Z,1.00
2018-04-29T14:57:36.678Z,1.00
2018-04-29T15:00:15.817Z,1.00
2018-04-29T15:02:46.365Z,67.60
2018-04-29T15:05:17.414Z,64.30
2018-04-29T15:07:46.531Z,45.80
2018-04-29T15:10:22.907Z,99.90
2018-04-29T15:12:52.881Z,99.90
2018-04-29T15:15:23.325Z,99.90
2018-04-29T15:17:52.503Z,95.70
2018-04-29T15:20:30.251Z,27.20
2018-04-29T15:23:08.105Z,1.00
2018-04-29T15:25:47.660Z,1.00
2018-04-29T15:28:25.580Z,1.00
2018-04-29T15:30:54.682Z,1.00
2018-04-29T15:33:24.558Z,99.90
2018-04-29T15:35:54.354Z,53.90
2018-04-29T15:38:25.027Z,7.30
2018-04-29T15:40:55.130Z,99.90
2018-04-29T15:43:34.502Z,1.00
2018-04-29T15:46:03.603Z,99.90
2018-04-29T15:48:40.724Z,1.00
2018-04-29T15:51:11.283Z,1.00
2018-04-29T15:53:40.922Z,1.00
2018-04-29T15:56:21.168Z,1.00
2018-04-29T15:58:50.196Z,1.00
2018-04-29T16:01:21.255Z,99.90
2018-04-29T16:03:57.757Z,99.90
2018-04-29T16:06:27.242Z,99.90
2018-04-29T16:09:00.863Z,17.80
2018-04-29T16:11:30.474Z,1.00
2018-04-29T16:14:00.623Z,99.90
2018-04-29T16:16:40.368Z,1.00
2018-04-29T16:19:13.292Z,99.90
2018-04-29T16:21:48.236Z,99.90
2018-04-29T16:24:18.138Z,8.00
2018-04-29T16:26:51.928Z,1.00
2018-04-29T16:29:21.198Z,1.00
2018-04-29T16:31:52.667Z,1.00
2018-04-29T16:34:31.004Z,1.00
2018-04-29T16:37:00.740Z,1.00
2018-04-29T16:39:31.217Z,99.90
2018-04-29T16:42:01.085Z,99.90
2018-04-29T16:44:33.196Z,99.90
2018-04-29T16:47:03.253Z,40.70
2018-04-29T16:49:33.517Z,37.40
2018-04-29T16:52:03.261Z,99.90
2018-04-29T16:54:34.662Z,99.90
2018-04-29T16:57:04.374Z,99.90
2018-04-29T16:59:34.800Z,99.90
2018-04-29T17:02:04.594Z,99.90
2018-04-29T17:04:34.699Z,1.00
2018-04-29T17:07:04.684Z,1.00
2018-04-29T17:09:35.796Z,99.90
2018-04-29T17:12:07.935Z,99.90
2018-04-29T17:14:38.172Z,99.90
2018-04-29T17:17:10.717Z,99.90
2018-04-29T17:19:42.946Z,99.90
2018-04-29T17:22:13.703Z,36.10
2018-04-29T17:24:43.484Z,39.90
2018-04-29T17:27:13.554Z,99.90
2018-04-29T17:29:42.553Z,99.90
2018-04-29T17:32:20.970Z,99.90
2018-04-29T17:34:58.175Z,99.90
2018-04-29T17:37:27.997Z,96.80
2018-04-29T17:39:58.146Z,1.00
2018-04-29T17:42:29.207Z,1.00
2018-04-29T17:44:59.527Z,1.00
2018-04-29T17:47:29.886Z,4.00
2018-04-29T17:50:00.363Z,99.90
2018-04-29T17:52:31.186Z,1.00
2018-04-29T17:55:01.978Z,1.00
2018-04-29T17:57:31.894Z,1.00
2018-04-29T18:00:02.674Z,52.20
2018-04-29T18:02:34.200Z,99.90
2018-04-29T18:05:06.511Z,99.90
2018-04-29T18:07:39.291Z,1.00
2018-04-29T18:10:12.060Z,93.30
2018-04-29T18:12:43.107Z,99.90
2018-04-29T18:15:14.298Z,99.90
2018-04-29T18:17:44.463Z,99.90
2018-04-29T18:20:15.246Z,99.90
2018-04-29T18:22:45.531Z,99.90
2018-04-29T18:25:16.338Z,1.00
2018-04-29T18:27:46.537Z,1.00
2018-04-29T18:30:17.690Z,1.00
2018-04-29T18:32:47.860Z,1.00
2018-04-29T18:35:17.595Z,1.00
2018-04-29T18:37:48.171Z,1.00
2018-04-29T18:40:17.901Z,1.00
2018-04-29T18:42:49.039Z,1.00
2018-04-29T18:45:19.656Z,1.00
2018-04-29T18:47:48.714Z,1.00
2018-04-29T18:50:26.692Z,1.00
2018-04-29T18:52:56.558Z,1.00
2018-04-29T18:55:26.689Z,1.00
2018-04-29T18:58:02.551Z,1.00
2018-04-29T19:00:40.575Z,1.00
2018-04-29T19:03:10.718Z,1.00
2018-04-29T19:05:47.430Z,1.00
2018-04-29T19:21:23.722Z,1.00
2018-04-29T19:23:53.483Z,1.00
2018-04-29T19:26:21.771Z,1.00
2018-04-29T19:28:59.435Z,3.80
2018-04-29T19:31:29.479Z,16.20
2018-04-29T19:33:59.417Z,31.00
2018-04-29T19:36:30.257Z,74.40
2018-04-29T19:39:00.777Z,54.20
2018-04-29T19:41:30.819Z,52.80
2018-04-29T19:44:01.253Z,43.40
2018-04-29T19:46:30.476Z,42.80
2018-04-29T19:49:08.981Z,24.70
2018-04-29T19:51:48.586Z,6.80
2018-04-29T19:54:26.655Z,1.00
2018-04-29T19:56:56.428Z,1.00
2018-04-29T19:59:26.245Z,1.00
2018-04-29T20:01:56.205Z,1.00
2018-04-29T20:04:26.580Z,1.00
2018-04-29T20:06:57.354Z,1.00
2018-04-29T20:09:27.881Z,1.00
2018-04-29T20:12:05.026Z,1.00
2018-04-29T20:14:43.931Z,1.00
2018-04-29T20:17:26.226Z,1.00
2018-04-29T20:20:02.795Z,1.00
2018-04-29T20:22:32.750Z,1.00
2018-04-29T20:25:11.041Z,1.00
2018-04-29T20:27:50.891Z,1.00
2018-04-29T20:30:27.344Z,1.00
2018-04-29T20:33:03.516Z,1.00
2018-04-29T20:35:40.456Z,3.30
2018-04-29T20:38:18.333Z,26.80
2018-04-29T20:40:55.913Z,51.50
2018-04-29T20:43:33.489Z,75.80
2018-04-29T20:46:13.448Z,99.90
2018-04-29T20:48:51.446Z,99.90
2018-04-29T20:51:28.473Z,99.90
2018-04-29T20:54:07.236Z,99.90
2018-04-29T20:56:45.614Z,1.00
2018-04-29T20:59:23.427Z,1.00
2018-04-29T21:02:03.156Z,1.00
2018-04-29T21:04:33.160Z,1.00
2018-04-29T21:07:02.702Z,1.00
2018-04-29T21:09:33.072Z,1.00
2018-04-29T21:12:10.187Z,1.00
2018-04-29T21:14:47.532Z,1.00
2018-04-29T21:17:27.785Z,1.00
2018-04-29T21:19:57.036Z,1.00
2018-04-29T21:22:26.718Z,1.00
2018-04-29T21:24:56.540Z,1.00
2018-04-29T21:27:25.484Z,1.00
2018-04-29T21:29:55.067Z,1.00
2018-04-29T21:32:25.297Z,1.00
2018-04-29T21:35:03.968Z,1.00
2018-04-29T21:37:35.143Z,1.00
2018-04-29T21:40:06.641Z,1.00
2018-04-29T21:45:13.654Z,1.00
2018-04-29T21:47:44.306Z,1.00
2018-04-29T21:50:14.789Z,1.00
2018-04-29T21:52:45.803Z,1.00
2018-04-29T21:55:18.234Z,1.00
2018-04-29T21:57:49.903Z,1.00
2018-04-29T22:00:21.453Z,1.00
2018-04-29T22:02:53.173Z,1.00
2018-04-29T22:05:25.140Z,1.00
2018-04-29T22:07:56.248Z,1.00
2018-04-29T22:10:26.614Z,1.00
2018-04-29T22:12:57.770Z,1.00
2018-04-29T22:15:29.792Z,1.00
2018-04-29T22:18:00.326Z,1.00
2018-04-29T22:20:31.143Z,1.00
2018-04-29T22:23:02.301Z,1.00
2018-04-29T22:25:33.237Z,1.00
2018-04-29T22:28:04.060Z,1.00
2018-04-29T22:30:36.203Z,1.00
2018-04-29T22:33:07.253Z,1.00
2018-04-29T22:35:37.949Z,1.00
2018-04-29T22:38:08.571Z,1.00
2018-04-29T22:40:37.589Z,1.00
2018-04-29T22:43:07.711Z,1.00
2018-04-29T22:45:39.859Z,1.00
2018-04-29T22:48:09.651Z,1.00
2018-04-29T22:50:40.637Z,1.00
2018-04-29T22:53:10.768Z,1.00
2018-04-29T22:55:40.921Z,1.00
2018-04-29T22:58:11.335Z,1.00
2018-04-29T23:00:41.090Z,1.00
2018-04-29T23:03:11.689Z,1.00
2018-04-29T23:05:44.298Z,1.00
2018-04-29T23:08:14.190Z,1.00
2018-04-29T23:10:44.348Z,1.00
2018-04-29T23:13:16.266Z,1.00
2018-04-29T23:15:47.221Z,1.00
2018-04-29T23:18:17.444Z,1.00
2018-04-29T23:20:47.921Z,1.00
2018-04-29T23:23:18.169Z,1.00
2018-04-29T23:25:49.037Z,1.00
2018-04-29T23:28:21.002Z,1.00
2018-04-29T23:30:51.842Z,1.00
2018-04-29T23:33:21.527Z,1.00
2018-04-29T23:35:52.580Z,1.00
2018-04-29T23:38:24.354Z,1.00
2018-04-29T23:40:54.618Z,1.00
2018-04-29T23:43:26.458Z,1.00
2018-04-29T23:45:58.424Z,1.00
2018-04-29T23:48:27.947Z,1.00
2018-04-29T23:50:57.756Z,1.00
2018-04-29T23:53:41.210Z,1.00
2018-04-29T23:56:18.773Z,1.00
2018-04-29T23:58:48.520Z,1.00
